createdAt,value
2022-10-19T00:01:00.689Z,78.18
2022-10-19T00:03:27.618Z,78.13
2022-10-19T00:05:54.407Z,77.78
2022-10-19T00:08:21.244Z,78.01
2022-10-19T00:10:48.239Z,77.29
2022-10-19T00:13:14.955Z,77.30
2022-10-19T00:15:42.055Z,77.84
2022-10-19T00:18:09.272Z,77.37
2022-10-19T00:20:37.090Z,77.04
2022-10-19T00:23:04.342Z,76.47
2022-10-19T00:25:31.118Z,76.35
2022-10-19T00:27:57.898Z,76.17
2022-10-19T00:30:24.720Z,76.39
2022-10-19T00:32:51.481Z,75.59
2022-10-19T00:35:18.170Z,75.69
2022-10-19T00:37:44.999Z,75.28
2022-10-19T00:40:11.884Z,75.37
2022-10-19T00:42:38.644Z,74.74
2022-10-19T00:45:13.101Z,74.21
2022-10-19T00:47:40.438Z,74.12
2022-10-19T00:50:07.684Z,73.76
2022-10-19T00:52:34.860Z,72.40
2022-10-19T00:55:02.777Z,72.40
2022-10-19T00:57:31.356Z,72.38
2022-10-19T01:00:00.507Z,71.00
2022-10-19T01:02:27.293Z,72.33
2022-10-19T01:04:54.241Z,72.51
2022-10-19T01:07:21.368Z,72.22
2022-10-19T01:09:48.364Z,71.51
2022-10-19T01:12:52.916Z,70.51
2022-10-19T01:15:32.656Z,71.42
2022-10-19T01:18:09.651Z,70.50
2022-10-19T01:21:10.625Z,70.38
2022-10-19T01:23:55.970Z,71.88
2022-10-19T01:26:45.590Z,71.31
2022-10-19T01:29:34.888Z,70.73
2022-10-19T01:32:07.616Z,71.57
2022-10-19T01:34:43.290Z,72.75
2022-10-19T01:37:38.034Z,75.71
2022-10-19T01:40:08.456Z,78.39
2022-10-19T01:43:09.019Z,79.76
2022-10-19T01:45:52.774Z,80.61
2022-10-19T01:48:25.073Z,81.00
2022-10-19T01:51:00.598Z,81.41
2022-10-19T01:53:30.566Z,82.12
2022-10-19T01:55:57.817Z,83.06
2022-10-19T01:58:31.832Z,81.77
2022-10-19T02:01:03.046Z,81.10
2022-10-19T02:03:29.960Z,80.50
2022-10-19T02:05:57.279Z,79.72
2022-10-19T02:08:42.139Z,78.89
2022-10-19T02:11:09.279Z,79.00
2022-10-19T02:13:37.645Z,78.34
2022-10-19T02:16:08.773Z,77.69
2022-10-19T02:18:42.782Z,77.56
2022-10-19T02:21:10.653Z,77.14
2022-10-19T02:23:37.537Z,77.03
2022-10-19T02:26:04.924Z,76.46
2022-10-19T02:28:32.133Z,76.19
2022-10-19T02:31:00.409Z,76.13
2022-10-19T02:33:28.908Z,75.62
2022-10-19T02:35:57.051Z,75.46
2022-10-19T02:38:24.914Z,76.10
2022-10-19T02:41:04.581Z,75.43
2022-10-19T02:43:34.664Z,75.71
2022-10-19T02:46:06.418Z,75.46
2022-10-19T02:48:35.352Z,75.73
2022-10-19T02:51:02.380Z,75.30
2022-10-19T02:53:29.520Z,75.03
2022-10-19T02:55:56.235Z,74.01
2022-10-19T02:58:23.039Z,73.54
2022-10-19T03:00:49.966Z,73.99
2022-10-19T03:03:16.785Z,74.01
2022-10-19T03:05:43.469Z,73.59
2022-10-19T03:08:10.336Z,74.21
2022-10-19T03:10:37.159Z,73.71
2022-10-19T03:13:03.850Z,74.19
2022-10-19T03:15:30.698Z,73.76
2022-10-19T03:17:57.575Z,73.71
2022-10-19T03:20:24.366Z,73.45
2022-10-19T03:25:18.115Z,73.34
2022-10-19T03:27:44.803Z,72.99
2022-10-19T03:30:11.737Z,72.77
2022-10-19T03:32:38.686Z,72.84
2022-10-19T03:35:05.892Z,72.23
2022-10-19T03:37:32.951Z,72.63
2022-10-19T03:40:00.014Z,71.49
2022-10-19T03:42:26.739Z,71.99
2022-10-19T03:44:53.586Z,71.17
2022-10-19T03:47:20.301Z,71.35
2022-10-19T03:49:46.998Z,71.03
2022-10-19T03:52:13.837Z,70.93
2022-10-19T03:54:40.576Z,69.79
2022-10-19T03:57:07.363Z,69.50
2022-10-19T03:59:34.216Z,70.52
2022-10-19T04:02:01.082Z,70.03
2022-10-19T04:04:27.817Z,70.23
2022-10-19T04:06:54.642Z,70.42
2022-10-19T04:09:22.726Z,71.11
2022-10-19T04:11:50.443Z,70.74
2022-10-19T04:14:31.609Z,70.87
2022-10-19T04:17:00.644Z,69.77
2022-10-19T04:19:27.381Z,72.79
2022-10-19T04:21:54.067Z,75.07
2022-10-19T04:24:20.934Z,76.13
2022-10-19T04:26:50.546Z,76.79
2022-10-19T04:29:23.735Z,78.19
2022-10-19T04:31:53.700Z,77.90
2022-10-19T04:34:20.545Z,77.67
2022-10-19T04:36:47.265Z,78.48
2022-10-19T04:39:14.239Z,78.30
2022-10-19T04:41:40.957Z,78.47
2022-10-19T04:44:07.728Z,77.89
2022-10-19T04:46:35.040Z,78.86
2022-10-19T04:49:04.880Z,80.82
2022-10-19T04:51:31.656Z,81.21
2022-10-19T04:53:59.752Z,81.85
2022-10-19T04:56:27.572Z,82.95
2022-10-19T04:58:56.684Z,83.64
2022-10-19T05:01:24.426Z,83.73
2022-10-19T05:03:59.356Z,83.24
2022-10-19T05:06:26.778Z,84.19
2022-10-19T05:08:53.881Z,85.60
2022-10-19T05:11:21.194Z,85.94
2022-10-19T05:13:49.034Z,86.71
2022-10-19T05:16:19.119Z,87.16
2022-10-19T05:18:56.924Z,87.76
2022-10-19T05:21:23.671Z,87.68
2022-10-19T05:23:55.250Z,88.33
2022-10-19T05:26:24.292Z,88.17
2022-10-19T05:28:56.905Z,88.27
2022-10-19T05:31:26.785Z,88.34
2022-10-19T05:33:56.385Z,88.94
2022-10-19T05:36:27.678Z,88.80
2022-10-19T05:38:58.399Z,89.24
2022-10-19T05:41:26.473Z,89.54
2022-10-19T05:43:55.737Z,89.53
2022-10-19T05:46:23.537Z,90.10
2022-10-19T05:48:50.583Z,90.01
2022-10-19T05:51:20.350Z,89.57
2022-10-19T05:53:47.420Z,89.65
2022-10-19T05:56:17.491Z,89.16
2022-10-19T05:58:44.139Z,90.26
2022-10-19T06:01:11.132Z,90.23
2022-10-19T06:03:38.460Z,89.99
2022-10-19T06:06:06.817Z,89.52
2022-10-19T06:08:34.583Z,89.20
2022-10-19T06:11:07.211Z,88.64
2022-10-19T06:13:34.166Z,89.57
2022-10-19T06:16:00.948Z,89.27
2022-10-19T06:18:28.133Z,89.18
2022-10-19T06:20:55.052Z,89.29
2022-10-19T06:23:21.982Z,89.57
2022-10-19T06:25:48.793Z,89.53
2022-10-19T06:28:15.565Z,89.92
2022-10-19T06:30:42.331Z,90.17
2022-10-19T06:33:09.337Z,89.28
2022-10-19T06:35:36.246Z,90.04
2022-10-19T06:38:02.933Z,90.39
2022-10-19T06:40:29.796Z,90.44
2022-10-19T06:42:56.806Z,90.17
2022-10-19T06:45:23.509Z,90.92
2022-10-19T06:47:50.347Z,91.11
2022-10-19T06:50:17.184Z,91.46
2022-10-19T06:52:43.941Z,91.35
2022-10-19T06:55:10.766Z,91.74
2022-10-19T06:57:37.704Z,91.53
2022-10-19T07:00:08.327Z,91.38
2022-10-19T07:02:35.207Z,92.04
2022-10-19T07:05:07.034Z,92.04
2022-10-19T07:07:34.394Z,91.70
2022-10-19T07:10:01.814Z,91.58
2022-10-19T07:12:28.514Z,91.96
2022-10-19T07:14:56.261Z,91.42
2022-10-19T07:17:23.191Z,91.65
2022-10-19T07:19:50.022Z,91.11
2022-10-19T07:22:21.227Z,90.40
2022-10-19T07:24:52.439Z,90.23
2022-10-19T07:27:19.200Z,90.09
2022-10-19T07:29:45.906Z,90.18
2022-10-19T07:32:12.790Z,90.74
2022-10-19T07:34:39.471Z,91.28
2022-10-19T07:37:06.214Z,91.76
2022-10-19T07:39:33.083Z,91.65
2022-10-19T07:41:59.796Z,91.79
2022-10-19T07:44:26.896Z,91.82
2022-10-19T07:46:53.717Z,91.51
2022-10-19T07:49:20.855Z,91.49
2022-10-19T07:51:47.623Z,91.56
2022-10-19T07:54:14.567Z,91.40
2022-10-19T07:56:41.703Z,91.52
2022-10-19T07:59:09.767Z,91.45
2022-10-19T08:01:41.557Z,91.07
2022-10-19T08:06:55.509Z,90.77
2022-10-19T08:09:50.791Z,90.81
2022-10-19T08:12:14.609Z,90.51
2022-10-19T08:14:42.063Z,90.04
2022-10-19T08:17:12.090Z,89.87
2022-10-19T08:19:43.507Z,90.58
2022-10-19T08:22:10.970Z,90.07
2022-10-19T08:24:38.109Z,89.72
2022-10-19T08:27:05.280Z,89.68
2022-10-19T08:29:32.258Z,89.72
2022-10-19T08:31:59.262Z,89.82
2022-10-19T08:34:26.127Z,89.43
2022-10-19T08:36:52.896Z,89.53
2022-10-19T08:39:19.826Z,89.64
2022-10-19T08:44:32.180Z,89.39
2022-10-19T08:47:36.515Z,89.38
2022-10-19T08:50:14.686Z,89.24
2022-10-19T08:52:43.412Z,88.47
2022-10-19T08:55:28.591Z,88.49
2022-10-19T08:58:21.286Z,88.66
2022-10-19T09:01:01.226Z,88.48
2022-10-19T09:03:55.742Z,88.04
2022-10-19T09:06:29.568Z,87.70
2022-10-19T09:09:00.040Z,87.74
2022-10-19T09:11:34.598Z,87.81
2022-10-19T09:14:11.510Z,87.45
2022-10-19T09:16:38.383Z,87.04
2022-10-19T09:19:23.063Z,86.38
2022-10-19T09:21:58.720Z,86.83
2022-10-19T09:24:36.916Z,86.73
2022-10-19T09:27:05.643Z,86.38
2022-10-19T09:29:37.365Z,86.54
2022-10-19T09:32:12.360Z,86.59
2022-10-19T09:34:45.350Z,86.13
2022-10-19T09:37:21.170Z,86.13
2022-10-19T09:39:54.903Z,86.41
2022-10-19T09:42:29.256Z,87.03
2022-10-19T09:44:57.064Z,86.80
2022-10-19T09:47:38.629Z,85.85
2022-10-19T09:50:23.130Z,85.32
2022-10-19T09:52:52.528Z,85.51
2022-10-19T09:55:38.053Z,86.35
2022-10-19T09:58:13.956Z,85.67
2022-10-19T10:00:54.595Z,85.50
2022-10-19T10:03:40.782Z,85.56
2022-10-19T10:06:10.431Z,85.27
2022-10-19T10:08:45.017Z,84.74
2022-10-19T10:11:15.187Z,84.70
2022-10-19T10:13:48.512Z,84.31
2022-10-19T10:16:18.861Z,84.33
2022-10-19T10:18:59.385Z,84.16
2022-10-19T10:21:35.834Z,84.05
2022-10-19T10:24:12.971Z,83.61
2022-10-19T10:26:45.429Z,84.13
2022-10-19T10:29:36.505Z,83.32
2022-10-19T10:32:18.335Z,83.88
2022-10-19T10:34:52.205Z,82.95
2022-10-19T10:37:39.579Z,83.63
2022-10-19T10:40:23.268Z,84.21
2022-10-19T10:42:53.675Z,83.58
2022-10-19T10:45:23.649Z,83.31
2022-10-19T10:47:50.825Z,83.32
2022-10-19T10:50:24.237Z,83.46
2022-10-19T10:53:23.632Z,83.90
2022-10-19T10:55:56.370Z,83.77
2022-10-19T10:58:43.372Z,84.54
2022-10-19T11:01:26.833Z,83.92
2022-10-19T11:04:11.270Z,85.25
2022-10-19T11:06:44.836Z,84.71
2022-10-19T11:09:26.145Z,83.33
2022-10-19T11:11:56.260Z,84.58
2022-10-19T11:15:00.923Z,86.18
2022-10-19T11:17:33.412Z,79.88
2022-10-19T11:20:00.542Z,80.06
2022-10-19T11:22:54.831Z,76.50
2022-10-19T11:25:21.581Z,78.78
2022-10-19T11:28:16.036Z,76.72
2022-10-19T11:31:20.987Z,77.92
2022-10-19T11:34:42.311Z,76.55
2022-10-19T11:37:20.796Z,76.01
2022-10-19T11:39:50.353Z,77.31
2022-10-19T11:42:54.740Z,77.42
2022-10-19T11:45:52.353Z,76.08
2022-10-19T11:48:54.158Z,78.66
2022-10-19T11:52:07.074Z,80.45
2022-10-19T11:54:55.183Z,78.18
2022-10-19T11:57:24.259Z,77.37
2022-10-19T12:00:15.277Z,78.25
2022-10-19T12:03:25.445Z,79.43
2022-10-19T12:06:13.775Z,77.03
2022-10-19T12:08:55.378Z,75.79
2022-10-19T12:11:47.867Z,76.08
2022-10-19T12:14:21.256Z,75.00
2022-10-19T12:16:53.827Z,75.53
2022-10-19T12:19:32.935Z,74.62
2022-10-19T12:22:02.733Z,74.55
2022-10-19T12:24:30.603Z,75.57
2022-10-19T12:26:59.503Z,73.79
2022-10-19T12:29:30.406Z,74.57
2022-10-19T12:32:00.145Z,73.40
2022-10-19T12:34:39.148Z,73.05
2022-10-19T12:37:21.054Z,74.49
2022-10-19T12:40:14.194Z,74.25
2022-10-19T12:43:02.086Z,74.04
2022-10-19T12:45:35.289Z,74.11
2022-10-19T12:48:14.617Z,73.33
2022-10-19T12:50:50.396Z,74.32
2022-10-19T12:53:28.373Z,73.42
2022-10-19T12:56:08.571Z,70.61
2022-10-19T12:58:47.726Z,70.96
2022-10-19T13:01:36.074Z,71.98
2022-10-19T13:04:16.611Z,71.89
2022-10-19T13:06:46.719Z,71.79
2022-10-19T13:09:37.357Z,73.20
2022-10-19T13:12:19.658Z,71.81
2022-10-19T13:14:51.413Z,71.84
2022-10-19T13:17:50.697Z,72.01
2022-10-19T13:20:17.614Z,72.45
2022-10-19T13:23:07.340Z,73.04
2022-10-19T13:25:41.596Z,72.69
2022-10-19T13:28:09.415Z,72.75
2022-10-19T13:30:36.210Z,72.10
2022-10-19T13:33:24.998Z,71.30
2022-10-19T13:36:01.074Z,70.54
2022-10-19T13:38:34.088Z,69.30
2022-10-19T13:41:21.524Z,69.86
2022-10-19T13:44:22.360Z,71.79
2022-10-19T13:46:55.027Z,73.64
2022-10-19T13:50:06.490Z,71.51
2022-10-19T13:52:42.480Z,72.24
2022-10-19T13:55:21.996Z,72.90
2022-10-19T13:58:14.255Z,72.70
2022-10-19T14:00:47.074Z,71.60
2022-10-19T14:03:51.114Z,72.62
2022-10-19T14:06:24.803Z,72.70
2022-10-19T14:09:31.831Z,71.81
2022-10-19T14:12:15.598Z,73.09
2022-10-19T14:14:44.382Z,71.73
2022-10-19T14:19:52.458Z,70.81
2022-10-19T14:22:26.628Z,71.06
2022-10-19T14:25:03.160Z,71.00
2022-10-19T14:27:31.671Z,71.73
2022-10-19T14:29:58.933Z,72.23
2022-10-19T14:32:28.627Z,72.92
2022-10-19T14:35:00.462Z,72.83
2022-10-19T14:37:27.608Z,73.04
2022-10-19T14:40:26.636Z,72.95
2022-10-19T14:42:55.473Z,73.21
2022-10-19T14:45:25.595Z,73.82
2022-10-19T14:47:52.441Z,73.29
2022-10-19T14:50:22.277Z,72.75
2022-10-19T14:52:52.786Z,73.29
2022-10-19T14:55:21.075Z,73.14
2022-10-19T14:57:50.429Z,72.96
2022-10-19T15:00:23.485Z,72.62
2022-10-19T15:03:04.017Z,71.93
2022-10-19T15:05:34.814Z,71.79
2022-10-19T15:08:21.993Z,72.08
2022-10-19T15:10:49.931Z,72.17
2022-10-19T15:13:30.994Z,71.77
2022-10-19T15:15:58.105Z,71.31
2022-10-19T15:18:44.369Z,71.17
2022-10-19T15:21:18.722Z,71.59
2022-10-19T15:23:47.975Z,71.45
2022-10-19T15:26:17.645Z,72.07
2022-10-19T15:28:45.354Z,72.69
2022-10-19T15:31:24.278Z,71.74
2022-10-19T15:33:55.111Z,72.27
2022-10-19T15:36:23.612Z,71.97
2022-10-19T15:39:11.471Z,71.95
2022-10-19T15:41:46.930Z,72.28
2022-10-19T15:44:42.318Z,71.96
2022-10-19T15:47:14.859Z,72.08
2022-10-19T15:49:41.573Z,72.55
2022-10-19T15:52:23.299Z,72.33
2022-10-19T15:54:51.905Z,72.76
2022-10-19T15:57:32.231Z,72.80
2022-10-19T16:00:06.933Z,73.24
2022-10-19T16:02:33.773Z,73.52
2022-10-19T16:05:00.640Z,73.36
2022-10-19T16:07:30.524Z,73.00
2022-10-19T16:09:57.645Z,73.86
2022-10-19T16:12:26.402Z,74.05
2022-10-19T16:14:54.245Z,73.75
2022-10-19T16:17:21.296Z,74.49
2022-10-19T16:19:48.358Z,74.47
2022-10-19T16:22:15.554Z,74.36
2022-10-19T16:24:43.385Z,74.85
2022-10-19T16:27:14.447Z,74.80
2022-10-19T16:29:42.437Z,75.18
2022-10-19T16:32:09.802Z,75.34
2022-10-19T16:34:36.626Z,75.29
2022-10-19T16:37:05.934Z,74.61
2022-10-19T16:39:34.027Z,74.92
2022-10-19T16:42:00.743Z,74.36
2022-10-19T16:44:27.483Z,74.10
2022-10-19T16:46:57.311Z,74.55
2022-10-19T16:49:24.241Z,74.17
2022-10-19T16:51:53.332Z,74.81
2022-10-19T16:54:23.913Z,74.47
2022-10-19T16:56:50.656Z,73.59
2022-10-19T16:59:19.088Z,72.06
2022-10-19T17:01:47.112Z,71.64
2022-10-19T17:04:15.811Z,71.99
2022-10-19T17:06:43.605Z,72.12
2022-10-19T17:11:57.257Z,72.36
2022-10-19T17:14:24.056Z,72.91
2022-10-19T17:16:50.745Z,73.53
2022-10-19T17:19:17.620Z,74.80
2022-10-19T17:21:44.491Z,75.72
2022-10-19T17:24:21.175Z,76.35
2022-10-19T17:26:50.914Z,77.21
2022-10-19T17:29:18.833Z,77.34
2022-10-19T17:31:45.982Z,78.05
2022-10-19T17:34:12.887Z,78.40
2022-10-19T17:36:42.085Z,78.18
2022-10-19T17:39:13.449Z,78.14
2022-10-19T17:41:40.131Z,78.23
2022-10-19T17:44:06.862Z,78.75
2022-10-19T17:46:35.545Z,79.03
2022-10-19T17:49:02.587Z,78.80
2022-10-19T17:51:30.983Z,78.93
2022-10-19T17:54:00.752Z,78.77
2022-10-19T17:56:28.459Z,78.01
2022-10-19T17:58:56.742Z,78.09
2022-10-19T18:01:24.409Z,77.83
2022-10-19T18:03:51.171Z,77.23
2022-10-19T18:06:23.778Z,77.57
2022-10-19T18:08:53.611Z,77.60
2022-10-19T18:11:26.372Z,77.45
2022-10-19T18:13:56.105Z,77.88
2022-10-19T18:16:25.550Z,78.20
2022-10-19T18:18:55.244Z,77.70
2022-10-19T18:21:25.462Z,78.13
2022-10-19T18:23:53.829Z,78.35
2022-10-19T18:26:24.415Z,78.56
2022-10-19T18:28:53.113Z,79.11
2022-10-19T18:31:22.870Z,79.18
2022-10-19T18:33:55.310Z,79.49
2022-10-19T18:36:22.225Z,79.62
2022-10-19T18:38:53.679Z,80.01
2022-10-19T18:41:26.255Z,79.72
2022-10-19T18:43:55.292Z,79.98
2022-10-19T18:46:23.701Z,79.89
2022-10-19T18:48:50.750Z,80.20
2022-10-19T18:51:19.236Z,80.44
2022-10-19T18:53:47.466Z,80.55
2022-10-19T18:56:16.735Z,80.36
2022-10-19T18:58:44.353Z,80.45
2022-10-19T19:01:28.119Z,80.96
2022-10-19T19:03:57.454Z,80.94
2022-10-19T19:06:29.950Z,81.27
2022-10-19T19:08:58.905Z,81.55
2022-10-19T19:11:34.322Z,81.03
2022-10-19T19:14:07.091Z,81.17
2022-10-19T19:16:36.541Z,81.28
2022-10-19T19:19:04.395Z,81.58
2022-10-19T19:21:32.845Z,80.63
2022-10-19T19:24:02.346Z,80.77
2022-10-19T19:26:32.463Z,81.14
2022-10-19T19:28:59.239Z,82.02
2022-10-19T19:31:26.251Z,81.30
2022-10-19T19:33:53.010Z,81.70
2022-10-19T19:36:19.988Z,81.28
2022-10-19T19:38:49.130Z,81.18
2022-10-19T19:41:16.648Z,81.43
2022-10-19T19:43:44.147Z,80.98
2022-10-19T19:46:17.341Z,80.84
2022-10-19T19:48:46.310Z,80.52
2022-10-19T19:51:18.564Z,80.76
2022-10-19T19:53:46.154Z,80.80
2022-10-19T19:56:14.742Z,80.71
2022-10-19T19:58:43.005Z,80.74
2022-10-19T20:01:12.435Z,81.06
2022-10-19T20:03:41.276Z,80.99
2022-10-19T20:06:08.358Z,81.13
2022-10-19T20:08:36.441Z,81.25
2022-10-19T20:11:09.382Z,81.34
2022-10-19T20:13:36.293Z,81.41
2022-10-19T20:16:14.398Z,81.16
2022-10-19T20:18:45.016Z,81.36
2022-10-19T20:21:11.923Z,81.76
2022-10-19T20:23:38.940Z,81.63
2022-10-19T20:26:05.864Z,81.66
2022-10-19T20:28:33.602Z,81.71
2022-10-19T20:31:05.715Z,81.53
2022-10-19T20:33:34.347Z,81.66
2022-10-19T20:36:06.759Z,81.83
2022-10-19T20:38:34.977Z,81.73
2022-10-19T20:41:08.223Z,81.28
2022-10-19T20:43:38.580Z,81.28
2022-10-19T20:46:05.709Z,81.87
2022-10-19T20:48:33.256Z,82.04
2022-10-19T20:51:14.390Z,81.70
2022-10-19T20:53:45.346Z,81.87
2022-10-19T20:56:15.056Z,81.84
2022-10-19T20:58:43.720Z,81.92
2022-10-19T21:01:16.400Z,81.60
2022-10-19T21:03:48.192Z,81.28
2022-10-19T21:06:15.548Z,81.63
2022-10-19T21:08:42.828Z,81.46
2022-10-19T21:11:21.232Z,81.17
2022-10-19T21:13:48.638Z,80.98
2022-10-19T21:16:18.884Z,79.95
2022-10-19T21:18:48.527Z,79.94
2022-10-19T21:21:24.570Z,78.93
2022-10-19T21:23:55.281Z,78.82
2022-10-19T21:26:24.428Z,78.68
2022-10-19T21:28:53.227Z,78.38
2022-10-19T21:31:21.803Z,77.94
2022-10-19T21:33:48.901Z,77.17
2022-10-19T21:36:16.092Z,77.09
2022-10-19T21:38:43.268Z,77.59
2022-10-19T21:41:20.982Z,76.89
2022-10-19T21:43:50.817Z,77.07
2022-10-19T21:46:20.029Z,76.44
2022-10-19T21:48:47.318Z,77.36
2022-10-19T21:51:21.775Z,77.10
2022-10-19T21:53:48.685Z,77.50
2022-10-19T21:56:16.272Z,77.20
2022-10-19T21:58:47.009Z,76.75
2022-10-19T22:01:14.479Z,77.53
2022-10-19T22:03:41.267Z,77.10
2022-10-19T22:06:08.066Z,77.05
2022-10-19T22:08:34.883Z,77.46
2022-10-19T22:11:20.089Z,77.39
2022-10-19T22:13:47.098Z,77.72
2022-10-19T22:16:17.141Z,77.28
2022-10-19T22:18:44.274Z,77.73
2022-10-19T22:21:14.614Z,77.66
2022-10-19T22:23:42.571Z,78.01
2022-10-19T22:26:14.285Z,77.40
2022-10-19T22:28:41.418Z,77.90
2022-10-19T22:31:08.597Z,77.77
2022-10-19T22:33:35.720Z,77.18
2022-10-19T22:36:06.287Z,77.20
2022-10-19T22:38:34.298Z,76.90
2022-10-19T22:41:01.129Z,77.15
2022-10-19T22:43:27.846Z,76.88
2022-10-19T22:45:54.611Z,76.90
2022-10-19T22:48:21.436Z,77.27
2022-10-19T22:50:48.168Z,76.93
2022-10-19T22:53:14.875Z,77.10
2022-10-19T22:55:41.662Z,77.30
2022-10-19T22:58:09.297Z,77.04
2022-10-19T23:00:36.560Z,77.17
2022-10-19T23:03:03.742Z,76.63
2022-10-19T23:05:30.453Z,76.42
2022-10-19T23:07:57.245Z,77.47
2022-10-19T23:10:24.273Z,76.85
2022-10-19T23:12:52.082Z,76.50
2022-10-19T23:15:19.724Z,76.40
2022-10-19T23:17:47.069Z,76.12
2022-10-19T23:20:14.464Z,76.19
2022-10-19T23:22:41.233Z,75.79
2022-10-19T23:25:08.798Z,75.88
2022-10-19T23:27:35.815Z,76.15
2022-10-19T23:30:03.979Z,76.29
2022-10-19T23:32:30.808Z,75.98
2022-10-19T23:34:57.506Z,76.46
2022-10-19T23:37:24.380Z,76.55
2022-10-19T23:39:51.177Z,76.42
2022-10-19T23:42:17.980Z,76.42
2022-10-19T23:44:44.747Z,75.88
2022-10-19T23:47:11.589Z,76.25
2022-10-19T23:49:38.269Z,75.54
2022-10-19T23:52:05.168Z,75.94
2022-10-19T23:54:32.012Z,75.56
2022-10-19T23:56:58.861Z,75.35
2022-10-19T23:59:25.671Z,75.52
